METAR AND TAF INFORMATION
METAR FOR PAJN
PAJN 160953Z 00000KT 10SM FEW090 SCT130 10/07 A3006 RMK AO2 SLP178 T01000072
PAJN 160853Z 09004KT 10SM SCT090 BKN140 10/08 A3004 RMK AO2 SLP173 T01000078 402110039 51013
PAJN 160753Z 10003KT 10SM SCT090 BKN130 12/08 A3003 RMK AO2 SLP169 T01170083
PAJN 161121Z 1612/1712 00000KT P6SM FEW090
FM161600 24008KT P6SM SCT050 SCT070
FM170500 08006KT P6SM SCT050

 AIRPORT MAP

 RUNWAY INFORMATION
Runway 08 Runway length 8457 ft Runway width 150 ft
Runway elevation 21 ft Runway displaced threshold 0 ft Runway heading 105
Runway 26 Runway length 8457 ft Runway width 150 ft
Runway elevation 20 ft Runway displaced threshold 0 ft Runway heading 285
Runway 08W Runway length 4900 ft Runway width 450 ft
Runway elevation 0 ft Runway displaced threshold 0 ft Runway heading 0
Runway 26W Runway length 4900 ft Runway width 450 ft
Runway elevation 0 ft Runway displaced threshold 0 ft Runway heading 0

 AIRPORT FREQUENCIES
Type ATIS Name ATIS Frequency 135.2 MHZ
Type AWOS Name TWEB Frequency 114 MHZ
Type CNTR Name ANCHORAGE Frequency 133.9 MHZ
Type CTAF Name CTAF Frequency 118.7 MHZ
Type FSS Name RDO Frequency 122.2 MHZ
Type GND Name GND Frequency 121.9 MHZ
Type MISC Name RDO Frequency 122.15 MHZ
Type OPS Name NAT GD OPS Frequency 124.65 MHZ
Type TWR Name TWR Frequency 118.7 MHZ
Type UNIC Name UNICOM Frequency 122.95 MHZ

 AIRPORT NEAR NAVIGATION AIDS
Type NDB Name Coghlan Island Frequency 212 KHZ

-